Time;durP1;ratioP1;P1;durP2;ratioP2;P2;SDS_P1;SDS_P2;PMS_P1;PMS_P2;Temp;Humidity;BMP_temperature;BMP_pressure;BME280_temperature;BME280_humidity;BME280_pressure;Samples;Min_cycle;Max_cycle;Signal;HPM_P1;HPM_P2
2023/08/02 07:39:44;;;;;;;7.70;4.50;;;;;;;27.13;62.34;99323.96;110650;1250;22643;-57
2023/08/02 07:42:11;;;;;;;8.30;5.30;;;;;;;27.33;61.74;99322.09;111931;1250;24145;-58
2023/08/02 07:44:38;;;;;;;10.40;4.90;;;;;;;27.50;61.07;99323.28;112859;1250;23188;-49
2023/08/02 07:47:05;;;;;;;11.60;4.90;;;;;;;27.65;60.43;99322.61;112310;1250;22303;-58
2023/08/02 07:49:32;;;;;;;6.10;5.00;;;;;;;27.75;59.95;99315.98;111764;1250;25333;-57
2023/08/02 07:51:59;;;;;;;8.50;5.70;;;;;;;27.81;59.92;99314.94;111635;1250;22271;-50
2023/08/02 07:54:26;;;;;;;5.90;5.00;;;;;;;27.92;59.66;99317.42;112847;1250;22410;-50
2023/08/02 07:56:52;;;;;;;4.70;4.20;;;;;;;28.05;59.40;99314.31;112060;1250;22585;-50
2023/08/02 07:59:19;;;;;;;5.20;4.60;;;;;;;28.19;59.14;99315.20;111198;1250;22504;-50
2023/08/02 08:01:46;;;;;;;6.60;4.90;;;;;;;28.35;58.52;99314.12;111437;1250;22511;-58
2023/08/02 08:04:14;;;;;;;8.70;4.30;;;;;;;28.45;57.53;99309.39;110372;1250;22513;-50
2023/08/02 08:06:47;;;;;;;12.10;4.90;;;;;;;28.50;57.29;99313.68;110240;1250;23247;-49
2023/08/02 08:09:14;;;;;;;10.40;5.10;;;;;;;28.48;56.83;99319.85;110249;1250;22502;-57
2023/08/02 08:11:41;;;;;;;5.80;4.40;;;;;;;28.41;56.96;99320.99;112914;1250;22367;-49
2023/08/02 08:14:08;;;;;;;11.60;4.80;;;;;;;28.34;54.89;99319.08;112342;1250;22466;-50
2023/08/02 08:16:35;;;;;;;5.70;4.60;;;;;;;28.23;55.86;99323.25;111040;1250;22514;-49
2023/08/02 08:19:02;;;;;;;5.40;4.60;;;;;;;28.11;56.15;99320.06;110629;1250;22644;-49
2023/08/02 08:21:31;;;;;;;9.10;4.50;;;;;;;28.05;56.46;99319.46;110477;1250;25175;-58
2023/08/02 08:23:58;;;;;;;5.20;4.30;;;;;;;28.06;56.43;99325.48;110670;1250;24207;-58
2023/08/02 08:26:25;;;;;;;7.40;4.30;;;;;;;28.06;56.03;99323.86;110549;1250;22508;-50
2023/08/02 08:28:52;;;;;;;7.10;4.40;;;;;;;28.05;56.27;99319.83;110721;1250;22513;-56
2023/08/02 08:31:19;;;;;;;15.30;4.30;;;;;;;28.05;56.16;99318.77;110320;1250;24190;-59
2023/08/02 08:33:47;;;;;;;5.50;4.00;;;;;;;28.06;55.89;99317.95;110376;1251;26668;-58
2023/08/02 08:36:14;;;;;;;4.70;4.30;;;;;;;28.12;55.47;99317.63;111954;1250;22168;-58
2023/08/02 08:38:41;;;;;;;11.20;5.90;;;;;;;28.21;54.84;99318.82;110992;1250;22481;-49
2023/08/02 08:41:14;;;;;;;5.60;4.90;;;;;;;28.25;54.89;99316.08;110467;1250;22507;-49
2023/08/02 08:43:41;;;;;;;12.50;5.10;;;;;;;28.25;54.06;99318.42;110156;1250;25340;-58
2023/08/02 08:46:11;;;;;;;6.50;4.20;;;;;;;28.23;53.72;99318.27;110598;1250;22580;-59
2023/08/02 08:48:38;;;;;;;10.20;4.50;;;;;;;28.21;53.55;99316.64;111502;1250;22461;-59
2023/08/02 08:51:05;;;;;;;4.80;4.10;;;;;;;28.24;53.13;99311.50;112378;1250;22557;-49
2023/08/02 08:53:33;;;;;;;5.60;4.70;;;;;;;28.33;53.49;99311.30;110180;1250;26461;-49
2023/08/02 08:56:01;;;;;;;5.20;4.00;;;;;;;28.49;53.50;99311.11;111942;1250;22425;-59
2023/08/02 08:58:29;;;;;;;4.80;4.30;;;;;;;28.60;52.20;99311.23;112882;1250;22537;-58
2023/08/02 09:00:58;;;;;;;5.60;3.90;;;;;;;28.61;51.87;99307.54;112857;1250;23159;-59
2023/08/02 09:03:25;;;;;;;6.20;4.20;;;;;;;28.57;50.99;99307.16;112867;1250;22416;-48
2023/08/02 09:05:52;;;;;;;5.60;4.60;;;;;;;28.48;51.16;99303.52;112871;1250;22421;-50
2023/08/02 09:08:19;;;;;;;5.30;4.40;;;;;;;28.51;51.50;99299.30;112600;1250;22452;-49
2023/08/02 09:10:46;;;;;;;5.30;4.40;;;;;;;28.62;51.99;99294.38;112782;1250;22254;-58
2023/08/02 09:13:21;;;;;;;6.60;4.70;;;;;;;28.76;51.85;99296.11;111382;1250;22275;-59
2023/08/02 09:16:03;;;;;;;7.60;4.50;;;;;;;28.84;51.16;99293.95;112440;1250;22506;-59
2023/08/02 09:18:37;;;;;;;7.90;5.00;;;;;;;28.94;51.06;99291.98;110312;1250;22887;-57
2023/08/02 09:21:05;;;;;;;9.10;4.90;;;;;;;29.05;50.89;99285.36;110030;1250;25469;-59
2023/08/02 09:23:32;;;;;;;6.90;4.60;;;;;;;29.16;50.47;99285.81;110027;1250;22559;-49
2023/08/02 09:26:14;;;;;;;6.90;5.40;;;;;;;29.19;50.61;99283.58;110622;1250;24252;-57
2023/08/02 09:28:41;;;;;;;8.00;4.80;;;;;;;29.23;50.66;99282.50;110931;1250;22405;-60
2023/08/02 09:31:17;;;;;;;8.40;5.40;;;;;;;29.22;50.26;99281.45;112680;1250;22567;-49
2023/08/02 09:33:52;;;;;;;17.70;5.70;;;;;;;29.23;50.75;99277.48;111152;1250;25322;-49
2023/08/02 09:36:25;;;;;;;12.20;5.50;;;;;;;29.31;50.94;99272.34;110407;1250;25385;-49
2023/08/02 09:38:56;;;;;;;5.70;5.00;;;;;;;29.39;51.05;99268.14;110649;1250;22551;-49
2023/08/02 09:41:24;;;;;;;7.10;4.80;;;;;;;29.44;50.58;99267.15;110493;1250;22745;-49
2023/08/02 09:44:18;;;;;;;6.40;5.70;;;;;;;29.50;50.43;99264.14;112857;1250;22377;-50
2023/08/02 09:46:46;;;;;;;10.40;6.20;;;;;;;29.58;50.26;99262.98;111452;1250;24317;-58
2023/08/02 09:49:19;;;;;;;6.30;5.70;;;;;;;29.69;50.05;99257.34;112300;1250;22543;-51
2023/08/02 09:51:46;;;;;;;6.70;6.00;;;;;;;29.73;49.68;99250.14;112568;1250;22422;-48
2023/08/02 09:54:14;;;;;;;7.00;6.30;;;;;;;29.76;49.52;99259.84;112038;1250;22506;-49
2023/08/02 09:56:41;;;;;;;8.30;5.50;;;;;;;29.68;50.12;99258.16;112868;1250;23108;-49
2023/08/02 09:59:08;;;;;;;9.70;6.10;;;;;;;29.64;50.10;99259.20;112687;1250;22279;-50
2023/08/02 10:01:36;;;;;;;6.40;5.70;;;;;;;29.66;50.21;99252.86;111719;1250;23503;-50
2023/08/02 10:04:05;;;;;;;6.40;5.70;;;;;;;29.74;50.15;99258.23;111272;1250;22539;-50
2023/08/02 10:06:35;;;;;;;7.50;5.40;;;;;;;29.80;49.83;99258.42;112844;1250;22430;-50
2023/08/02 10:09:05;;;;;;;6.20;5.00;;;;;;;29.81;49.57;99253.61;112683;1250;22428;-50
2023/08/02 10:11:39;;;;;;;10.40;5.50;;;;;;;29.81;49.29;99249.67;112797;1250;22456;-49
2023/08/02 10:14:06;;;;;;;9.50;4.90;;;;;;;29.79;49.37;99250.64;112340;1250;24427;-48
2023/08/02 10:16:33;;;;;;;6.90;6.10;;;;;;;29.80;49.08;99248.55;111562;1250;22414;-50
2023/08/02 10:19:01;;;;;;;10.70;6.10;;;;;;;29.79;48.96;99252.75;112635;1250;23149;-49
2023/08/02 10:21:28;;;;;;;5.70;5.20;;;;;;;29.73;49.07;99248.86;112806;1250;22229;-53
2023/08/02 10:23:55;;;;;;;13.00;4.60;;;;;;;29.62;48.46;99249.86;112567;1250;22373;-50
2023/08/02 10:26:22;;;;;;;7.30;4.70;;;;;;;29.52;48.29;99245.65;112669;1250;22446;-50
2023/08/02 10:28:49;;;;;;;7.40;4.80;;;;;;;29.45;47.90;99237.66;112858;1250;23431;-49
2023/08/02 10:31:16;;;;;;;8.60;4.30;;;;;;;29.48;48.19;99239.05;112046;1250;23134;-49
2023/08/02 10:33:43;;;;;;;15.70;12.30;;;;;;;29.53;47.30;99241.29;112668;1250;22412;-49
2023/08/02 10:36:11;;;;;;;10.20;8.50;;;;;;;29.48;46.40;99239.49;112801;1250;22505;-49
2023/08/02 10:38:44;;;;;;;27.30;6.00;;;;;;;29.56;46.85;99238.27;112802;1250;22823;-50
2023/08/02 10:41:16;;;;;;;13.70;4.90;;;;;;;29.76;46.17;99235.61;112051;1250;23261;-50
2023/08/02 10:44:11;;;;;;;6.50;4.60;;;;;;;30.02;45.58;99234.00;111605;1250;25312;-49
2023/08/02 10:46:38;;;;;;;6.70;4.60;;;;;;;30.19;45.44;99235.38;111979;1250;22514;-50
2023/08/02 10:49:08;;;;;;;7.70;4.30;;;;;;;30.22;45.81;99234.80;112246;1250;23184;-51
2023/08/02 10:51:38;;;;;;;4.60;3.90;;;;;;;30.25;45.67;99237.16;111266;1250;24215;-50
2023/08/02 10:54:14;;;;;;;16.30;4.60;;;;;;;30.44;44.97;99231.95;110519;1250;22491;-49
2023/08/02 10:56:50;;;;;;;6.10;3.40;;;;;;;30.62;44.20;99234.70;110745;1250;23278;-49
2023/08/02 10:59:30;;;;;;;7.40;3.40;;;;;;;30.78;42.76;99229.71;110400;1250;22565;-50
2023/08/02 11:02:04;;;;;;;4.80;3.80;;;;;;;30.93;42.12;99230.33;110150;1250;25333;-51
2023/08/02 11:04:31;;;;;;;7.60;3.90;;;;;;;30.93;42.03;99229.83;111084;1250;22502;-49
2023/08/02 11:07:14;;;;;;;4.80;4.40;;;;;;;30.84;42.28;99224.05;111059;1250;26961;-53
2023/08/02 11:09:41;;;;;;;6.40;4.30;;;;;;;30.79;42.32;99219.77;111180;1250;22507;-51
2023/08/02 11:12:12;;;;;;;4.50;4.00;;;;;;;30.66;42.36;99222.13;110873;1250;24058;-50
2023/08/02 11:14:40;;;;;;;8.20;3.60;;;;;;;30.45;42.19;99222.86;110905;1250;24309;-50
2023/08/02 11:17:08;;;;;;;4.60;4.20;;;;;;;30.32;42.16;99222.75;110510;1250;23191;-50
2023/08/02 11:19:38;;;;;;;4.50;3.80;;;;;;;30.34;42.12;99226.91;110929;1250;26578;-50
2023/08/02 11:22:06;;;;;;;6.20;3.80;;;;;;;30.41;41.70;99218.15;110778;1250;25398;-50
2023/08/02 11:24:43;;;;;;;4.40;3.30;;;;;;;30.35;41.71;99217.42;112879;1250;22318;-50
2023/08/02 11:27:17;;;;;;;5.00;4.20;;;;;;;30.35;41.99;99217.39;111976;1250;22574;-51
2023/08/02 11:30:05;;;;;;;8.40;4.10;;;;;;;30.49;42.80;99211.52;112880;1250;22387;-50
2023/08/02 11:32:32;;;;;;;4.20;3.30;;;;;;;30.68;42.93;99205.17;111840;1250;22424;-50
2023/08/02 11:35:00;;;;;;;8.00;3.60;;;;;;;30.82;43.15;99203.09;112843;1250;23285;-50
2023/08/02 11:37:27;;;;;;;7.20;4.10;;;;;;;30.87;42.75;99204.16;112867;1250;22436;-50
2023/08/02 11:39:55;;;;;;;4.30;3.90;;;;;;;30.76;42.93;99202.41;112722;1250;23305;-50
2023/08/02 11:42:25;;;;;;;6.00;3.90;;;;;;;30.66;42.23;99202.27;112147;1250;22477;-49
2023/08/02 11:44:52;;;;;;;6.20;4.30;;;;;;;30.53;42.45;99204.48;112886;1250;22245;-50
2023/08/02 11:47:39;;;;;;;9.50;4.20;;;;;;;30.31;42.82;99207.25;112720;1250;22567;-49
2023/08/02 11:50:07;;;;;;;5.30;3.40;;;;;;;30.10;43.45;99204.27;112872;1250;22599;-50
2023/08/02 11:52:34;;;;;;;7.70;3.70;;;;;;;29.97;42.71;99210.20;110435;1250;24935;-49
2023/08/02 11:55:01;;;;;;;6.60;3.90;;;;;;;29.82;42.42;99206.85;110416;1250;23175;-49
2023/08/02 11:57:28;;;;;;;5.10;4.40;;;;;;;29.72;42.90;99209.02;110242;1250;25467;-49
2023/08/02 11:59:56;;;;;;;4.40;4.00;;;;;;;29.67;43.69;99208.77;110431;1250;22542;-49
2023/08/02 12:02:27;;;;;;;7.30;5.20;;;;;;;29.65;44.53;99208.45;109971;1250;25468;-50
2023/08/02 12:04:54;;;;;;;5.90;4.70;;;;;;;29.62;44.17;99208.77;110215;1250;26473;-50
2023/08/02 12:07:29;;;;;;;4.60;4.20;;;;;;;29.59;44.34;99207.29;110620;1250;23302;-50
2023/08/02 12:09:57;;;;;;;15.60;4.70;;;;;;;29.59;43.86;99205.45;110311;1250;22575;-49
2023/08/02 12:12:31;;;;;;;6.40;4.60;;;;;;;29.61;43.51;99201.26;110051;1250;25492;-49
2023/08/02 12:14:58;;;;;;;5.00;4.50;;;;;;;29.71;43.00;99201.07;110804;1250;22586;-49
2023/08/02 12:17:25;;;;;;;4.70;4.30;;;;;;;29.80;42.67;99191.88;110588;1250;25270;-50
2023/08/02 12:19:52;;;;;;;5.30;4.80;;;;;;;29.82;42.47;99193.20;110126;1250;25398;-50
2023/08/02 12:22:20;;;;;;;5.70;4.60;;;;;;;29.69;42.41;99193.11;110184;1250;23142;-50
2023/08/02 12:25:04;;;;;;;6.90;5.00;;;;;;;29.58;42.79;99191.17;110342;1250;22513;-50
2023/08/02 12:27:31;;;;;;;10.40;4.70;;;;;;;29.50;43.19;99190.33;110362;1250;22500;-50
2023/08/02 12:30:09;;;;;;;4.90;4.40;;;;;;;29.42;43.60;99192.27;110425;1250;22503;-48
2023/08/02 12:32:36;;;;;;;5.70;4.70;;;;;;;29.32;44.05;99190.06;110236;1250;23174;-50
2023/08/02 12:35:07;;;;;;;5.50;4.30;;;;;;;29.17;44.88;99190.57;110658;1250;22534;-50
2023/08/02 12:37:42;;;;;;;7.60;4.60;;;;;;;29.02;44.97;99188.00;110376;1250;25330;-50
2023/08/02 12:40:09;;;;;;;8.00;5.00;;;;;;;28.91;45.40;99187.77;109990;1250;25301;-50
2023/08/02 12:42:36;;;;;;;5.80;4.20;;;;;;;28.85;45.37;99187.08;110363;1250;22494;-49
2023/08/02 12:45:25;;;;;;;7.80;4.60;;;;;;;28.82;45.66;99187.23;109710;1250;23842;-50
2023/08/02 12:47:52;;;;;;;9.50;4.70;;;;;;;28.78;45.90;99185.23;110334;1250;22517;-51
2023/08/02 12:50:19;;;;;;;12.70;5.20;;;;;;;28.78;46.26;99184.38;110052;1250;25568;-49
2023/08/02 12:52:47;;;;;;;13.00;5.00;;;;;;;28.79;45.93;99184.66;110030;1250;25396;-49
2023/08/02 12:55:14;;;;;;;5.40;4.60;;;;;;;28.77;46.18;99181.40;110629;1250;25311;-49
2023/08/02 12:57:41;;;;;;;4.80;4.20;;;;;;;28.78;45.92;99185.39;110097;1250;25319;-49
2023/08/02 13:00:11;;;;;;;5.90;4.70;;;;;;;28.79;45.78;99183.01;109986;1250;25326;-51
2023/08/02 13:02:39;;;;;;;8.70;4.70;;;;;;;28.76;45.73;99183.46;109886;1250;23900;-48
2023/08/02 13:05:07;;;;;;;10.80;5.10;;;;;;;28.74;46.22;99184.11;110294;1250;22504;-51
2023/08/02 13:07:34;;;;;;;5.20;4.50;;;;;;;28.76;46.37;99184.73;109667;1250;26538;-50
2023/08/02 13:10:11;;;;;;;12.40;4.50;;;;;;;28.75;45.90;99182.66;110342;1250;22511;-48
2023/08/02 13:12:38;;;;;;;7.70;4.20;;;;;;;28.74;45.79;99182.42;109934;1250;22545;-51
2023/08/02 13:15:06;;;;;;;6.20;4.90;;;;;;;28.71;46.04;99174.98;110653;1250;22500;-48
2023/08/02 13:17:34;;;;;;;4.80;4.30;;;;;;;28.66;46.46;99175.42;110553;1250;25367;-50
2023/08/02 13:20:02;;;;;;;8.80;4.60;;;;;;;28.67;46.61;99169.83;110515;1250;22467;-49
2023/08/02 13:22:30;;;;;;;5.70;4.30;;;;;;;28.70;46.49;99167.32;110206;1250;24204;-49
2023/08/02 13:24:57;;;;;;;5.50;4.30;;;;;;;28.72;45.99;99166.59;111525;1250;25443;-50
2023/08/02 13:27:24;;;;;;;5.70;4.10;;;;;;;28.68;45.79;99164.28;110090;1250;22512;-49
2023/08/02 13:29:51;;;;;;;5.10;4.20;;;;;;;28.62;45.91;99161.40;109906;1236;25285;-49
2023/08/02 13:32:18;;;;;;;8.80;4.40;;;;;;;28.58;46.25;99157.36;110045;1250;22603;-49
2023/08/02 13:34:45;;;;;;;7.50;4.20;;;;;;;28.56;46.06;99153.05;110367;1250;25418;-50
2023/08/02 13:37:12;;;;;;;8.00;4.20;;;;;;;28.52;46.10;99148.86;109959;1250;22572;-50
2023/08/02 13:39:39;;;;;;;5.10;4.20;;;;;;;28.50;46.19;99146.80;110098;1250;25315;-50
2023/08/02 13:42:07;;;;;;;6.10;4.20;;;;;;;28.49;46.23;99142.02;110365;1250;23313;-50
2023/08/02 13:44:34;;;;;;;7.70;3.60;;;;;;;28.51;46.27;99145.04;112868;1250;22975;-49
2023/08/02 13:47:02;;;;;;;8.70;3.90;;;;;;;28.54;46.28;99145.30;112865;1250;23123;-49
2023/08/02 13:49:29;;;;;;;5.50;4.00;;;;;;;28.57;46.59;99142.54;110718;1250;22573;-59
2023/08/02 13:51:56;;;;;;;6.00;3.70;;;;;;;28.56;46.51;99139.71;110253;1250;26673;-59
2023/08/02 13:54:23;;;;;;;5.00;4.00;;;;;;;28.55;46.54;99137.85;110101;1250;23869;-59
2023/08/02 13:56:50;;;;;;;8.40;3.70;;;;;;;28.55;46.24;99137.85;110215;1250;22529;-49
2023/08/02 13:59:17;;;;;;;7.90;3.70;;;;;;;28.57;46.11;99137.10;110132;1243;26471;-50
2023/08/02 14:01:44;;;;;;;7.40;3.60;;;;;;;28.60;46.00;99137.05;110114;1250;25315;-50
2023/08/02 14:04:11;;;;;;;6.60;3.40;;;;;;;28.63;46.32;99134.95;110554;1250;22566;-49
2023/08/02 14:06:38;;;;;;;7.80;3.60;;;;;;;28.65;46.52;99132.33;110006;1250;25673;-48
2023/08/02 14:09:05;;;;;;;7.30;3.90;;;;;;;28.65;46.57;99129.63;110255;1250;25199;-51
2023/08/02 14:11:32;;;;;;;6.10;4.40;;;;;;;28.65;46.49;99128.87;110191;1250;22521;-48
2023/08/02 14:14:00;;;;;;;13.50;4.40;;;;;;;28.70;45.90;99130.61;111134;1250;23672;-49
2023/08/02 14:16:27;;;;;;;7.90;4.00;;;;;;;28.70;45.33;99122.34;110664;1250;25206;-52
2023/08/02 14:18:54;;;;;;;8.00;4.00;;;;;;;28.66;45.08;99126.09;110318;1250;25272;-49
2023/08/02 14:21:21;;;;;;;5.90;4.00;;;;;;;28.58;45.18;99124.65;110519;1250;23191;-48
2023/08/02 14:23:48;;;;;;;13.10;4.10;;;;;;;28.50;45.03;99124.55;111273;1250;22527;-47
2023/08/02 14:26:15;;;;;;;5.50;3.80;;;;;;;28.45;45.33;99121.56;111369;1250;25395;-50
2023/08/02 14:28:42;;;;;;;5.30;3.80;;;;;;;28.44;45.65;99121.68;109973;1250;25327;-50
2023/08/02 14:31:10;;;;;;;7.60;3.90;;;;;;;28.42;45.75;99120.62;109789;1250;25365;-48
2023/08/02 14:33:37;;;;;;;5.20;4.20;;;;;;;28.39;45.73;99120.55;110066;1250;22505;-49
2023/08/02 14:36:04;;;;;;;3.60;3.20;;;;;;;28.34;46.06;99121.52;110681;1250;23145;-49
2023/08/02 14:38:33;;;;;;;5.70;3.70;;;;;;;28.30;45.81;99120.80;111169;1250;23068;-49
2023/08/02 14:41:00;;;;;;;5.00;4.10;;;;;;;28.25;45.88;99118.87;111020;1250;22500;-49
2023/08/02 14:43:27;;;;;;;13.70;4.00;;;;;;;28.23;46.31;99121.81;112630;1250;22452;-51
2023/08/02 14:45:54;;;;;;;6.70;4.00;;;;;;;28.21;46.76;99119.27;110808;1250;22495;-51
2023/08/02 14:48:21;;;;;;;10.50;4.00;;;;;;;28.18;47.12;99116.66;111590;1250;23320;-48
2023/08/02 14:50:48;;;;;;;10.00;3.80;;;;;;;28.13;46.88;99120.89;110553;1250;22603;-48
2023/08/02 14:53:15;;;;;;;7.30;3.60;;;;;;;28.07;47.36;99121.23;110817;1250;25244;-50
2023/08/02 14:55:42;;;;;;;9.20;4.60;;;;;;;28.03;47.92;99121.23;110960;1250;23828;-48
2023/08/02 14:58:10;;;;;;;9.90;4.50;;;;;;;28.02;48.13;99125.48;109997;1250;25359;-50
2023/08/02 15:00:40;;;;;;;10.70;4.30;;;;;;;28.01;48.09;99129.17;109971;1250;25304;-49
2023/08/02 15:03:07;;;;;;;13.70;4.70;;;;;;;27.98;48.26;99124.64;110311;1250;25501;-48
2023/08/02 15:05:34;;;;;;;9.90;4.90;;;;;;;27.94;48.38;99124.06;109965;1250;25238;-49
2023/08/02 15:08:02;;;;;;;7.00;4.60;;;;;;;27.92;48.70;99119.64;110416;1250;25503;-50
2023/08/02 15:10:29;;;;;;;6.70;5.00;;;;;;;27.90;48.61;99120.00;110103;1250;23853;-50
2023/08/02 15:12:56;;;;;;;6.50;5.20;;;;;;;27.89;48.66;99121.34;110176;1250;24980;-50
2023/08/02 15:15:23;;;;;;;9.80;5.90;;;;;;;27.87;48.68;99125.58;110380;1250;25442;-52
2023/08/02 15:17:50;;;;;;;17.40;6.30;;;;;;;27.84;49.01;99121.74;110051;1250;24283;-51
2023/08/02 15:20:17;;;;;;;16.30;6.00;;;;;;;27.81;49.24;99119.09;109925;1250;25291;-50
